createdAt,value
2023-01-15T00:00:32.026Z,94.0
2023-01-15T00:05:38.227Z,94.0
2023-01-15T00:10:44.424Z,94.0
2023-01-15T00:15:50.665Z,94.0
2023-01-15T00:20:56.842Z,94.5
2023-01-15T00:26:03.049Z,94.0
2023-01-15T00:31:09.321Z,94.0
2023-01-15T00:36:14.490Z,94.0
2023-01-15T00:41:20.739Z,94.0
2023-01-15T00:46:25.964Z,94.0
2023-01-15T00:51:32.145Z,93.5
2023-01-15T00:56:38.353Z,93.5
2023-01-15T01:01:44.716Z,93.5
2023-01-15T01:06:50.773Z,93.5
2023-01-15T01:11:57.007Z,93.5
2023-01-15T01:17:03.214Z,94.0
2023-01-15T01:22:09.414Z,94.0
2023-01-15T01:27:15.595Z,94.0
2023-01-15T01:32:21.801Z,94.0
2023-01-15T01:37:28.014Z,93.5
2023-01-15T01:42:34.222Z,93.5
2023-01-15T01:47:40.428Z,93.5
2023-01-15T01:52:46.635Z,93.5
2023-01-15T01:57:52.852Z,93.0
2023-01-15T02:02:59.071Z,93.0
2023-01-15T02:08:05.380Z,93.0
2023-01-15T02:13:11.460Z,93.0
2023-01-15T02:18:17.673Z,93.0
2023-01-15T02:23:23.881Z,93.0
2023-01-15T02:28:30.133Z,93.0
2023-01-15T02:33:35.338Z,93.0
2023-01-15T02:38:41.534Z,93.0
2023-01-15T02:43:46.771Z,93.0
2023-01-15T02:48:52.977Z,92.5
2023-01-15T02:53:59.181Z,92.5
2023-01-15T02:59:05.390Z,92.5
2023-01-15T03:04:11.598Z,92.5
2023-01-15T03:09:17.813Z,92.5
2023-01-15T03:14:24.009Z,92.5
2023-01-15T03:19:30.220Z,92.5
2023-01-15T03:24:36.423Z,92.5
2023-01-15T03:29:42.635Z,92.5
2023-01-15T03:34:48.851Z,92.5
2023-01-15T03:39:55.050Z,92.5
2023-01-15T03:45:01.269Z,92.5
2023-01-15T03:50:07.477Z,92.5
2023-01-15T03:55:13.690Z,92.0
2023-01-15T04:00:19.904Z,92.0
2023-01-15T04:05:26.097Z,92.0
2023-01-15T04:10:32.295Z,92.0
2023-01-15T04:15:38.603Z,92.0
2023-01-15T04:20:44.711Z,92.0
2023-01-15T04:25:50.924Z,92.0
2023-01-15T04:30:56.191Z,92.0
2023-01-15T04:36:02.373Z,92.0
2023-01-15T04:41:07.614Z,91.5
2023-01-15T04:46:13.857Z,91.5
2023-01-15T04:51:20.024Z,91.5
2023-01-15T04:56:26.221Z,91.5
2023-01-15T05:01:32.547Z,91.5
2023-01-15T05:06:38.636Z,91.5
2023-01-15T05:11:44.850Z,91.5
2023-01-15T05:16:51.081Z,91.5
2023-01-15T05:21:57.264Z,91.5
2023-01-15T05:27:03.468Z,91.5
2023-01-15T05:32:09.878Z,91.5
2023-01-15T05:37:15.885Z,91.5
2023-01-15T05:42:22.097Z,91.5
2023-01-15T05:47:28.299Z,91.5
2023-01-15T05:52:34.528Z,91.5
2023-01-15T05:57:40.716Z,91.5
2023-01-15T06:02:46.966Z,91.0
2023-01-15T06:07:53.166Z,91.0
2023-01-15T06:12:59.339Z,91.0
2023-01-15T06:18:05.556Z,91.0
2023-01-15T06:23:11.762Z,91.0
2023-01-15T06:28:16.996Z,91.0
2023-01-15T06:33:23.203Z,91.0
2023-01-15T06:38:28.516Z,91.0
2023-01-15T06:43:34.638Z,91.0
2023-01-15T06:48:40.853Z,91.5
2023-01-15T06:53:47.084Z,91.5
2023-01-15T06:58:53.270Z,92.0
2023-01-15T07:03:59.629Z,92.0
2023-01-15T07:09:05.683Z,92.0
2023-01-15T07:14:11.883Z,92.0
2023-01-15T07:19:18.090Z,92.0
2023-01-15T07:24:24.322Z,92.0
2023-01-15T07:29:31.532Z,92.0
2023-01-15T07:34:36.717Z,92.0
2023-01-15T07:39:42.928Z,91.5
2023-01-15T07:44:49.139Z,91.5
2023-01-15T07:49:55.354Z,91.5
2023-01-15T07:55:01.555Z,91.5
2023-01-15T08:00:07.757Z,91.5
2023-01-15T08:05:13.981Z,91.5
2023-01-15T08:10:20.177Z,91.5
2023-01-15T08:15:26.423Z,91.5
2023-01-15T08:20:32.589Z,91.5
2023-01-15T08:25:37.833Z,91.5
2023-01-15T08:30:44.044Z,91.0
2023-01-15T08:35:49.293Z,91.0
2023-01-15T08:40:55.479Z,91.0
2023-01-15T08:46:01.740Z,91.0
2023-01-15T08:51:07.891Z,90.5
2023-01-15T08:56:14.125Z,90.5
2023-01-15T09:01:20.401Z,90.5
2023-01-15T09:06:26.525Z,90.5
2023-01-15T09:11:32.723Z,90.5
2023-01-15T09:16:39.059Z,90.5
2023-01-15T09:21:45.134Z,90.5
2023-01-15T09:26:51.338Z,90.5
2023-01-15T09:31:57.563Z,90.5
2023-01-15T09:37:03.757Z,90.5
2023-01-15T09:42:09.967Z,90.5
2023-01-15T09:47:16.166Z,90.5
2023-01-15T09:52:22.385Z,90.5
2023-01-15T10:02:34.792Z,90.5
2023-01-15T10:07:41.003Z,90.5
2023-01-15T10:12:47.238Z,90.0
2023-01-15T10:17:53.423Z,90.0
2023-01-15T10:22:59.962Z,90.0
2023-01-15T10:28:04.863Z,90.0
2023-01-15T10:33:11.089Z,90.0
2023-01-15T10:38:17.286Z,90.0
2023-01-15T10:43:22.508Z,90.0
2023-01-15T10:48:28.730Z,89.5
2023-01-15T10:53:34.930Z,89.5
2023-01-15T10:58:41.136Z,89.0
2023-01-15T11:03:47.338Z,89.0
2023-01-15T11:13:59.769Z,88.5
2023-01-15T11:19:05.964Z,88.5
2023-01-15T11:24:12.179Z,88.0
2023-01-15T11:29:18.381Z,88.0
2023-01-15T11:34:24.601Z,87.5
2023-01-15T11:39:30.816Z,87.5
2023-01-15T11:44:37.004Z,87.5
2023-01-15T11:49:43.212Z,87.0
2023-01-15T11:54:49.428Z,87.0
2023-01-15T11:59:55.629Z,87.0
2023-01-15T12:05:01.845Z,87.0
2023-01-15T12:10:08.093Z,87.0
2023-01-15T12:15:14.253Z,87.0
2023-01-15T12:20:20.461Z,87.0
2023-01-15T12:25:26.662Z,87.0
2023-01-15T12:30:31.917Z,87.0
2023-01-15T12:35:38.112Z,87.0
2023-01-15T12:40:43.352Z,87.0
2023-01-15T12:45:49.571Z,87.0
2023-01-15T12:50:55.769Z,87.5
2023-01-15T12:56:01.974Z,87.0
2023-01-15T13:01:08.285Z,87.5
2023-01-15T13:06:14.417Z,87.5
2023-01-15T13:11:19.610Z,87.5
2023-01-15T13:16:25.902Z,88.0
2023-01-15T13:21:32.060Z,88.0
2023-01-15T13:26:38.245Z,88.0
2023-01-15T13:31:44.543Z,88.0
2023-01-15T13:36:50.657Z,88.0
2023-01-15T13:41:56.855Z,88.0
2023-01-15T13:47:03.104Z,88.0
2023-01-15T13:52:09.307Z,88.0
2023-01-15T13:57:15.481Z,88.0
2023-01-15T14:02:21.689Z,88.0
2023-01-15T14:07:27.890Z,87.5
2023-01-15T14:17:40.321Z,88.0
2023-01-15T14:22:46.520Z,88.0
2023-01-15T14:27:52.745Z,88.0
2023-01-15T14:32:57.959Z,88.0
2023-01-15T14:38:04.487Z,88.0
2023-01-15T14:43:10.422Z,88.0
2023-01-15T14:48:16.585Z,87.5
2023-01-15T14:58:30.901Z,87.5
2023-01-15T15:03:35.210Z,87.5
2023-01-15T15:08:41.424Z,87.0
2023-01-15T15:13:47.662Z,87.0
2023-01-15T15:18:53.827Z,86.5
2023-01-15T15:24:00.078Z,86.5
2023-01-15T15:29:06.267Z,86.5
2023-01-15T15:34:12.461Z,86.5
2023-01-15T15:39:18.658Z,86.5
2023-01-15T15:44:24.868Z,86.5
2023-01-15T15:49:31.076Z,86.0
2023-01-15T15:54:37.278Z,86.0
2023-01-15T15:59:43.489Z,86.0
2023-01-15T16:04:49.711Z,86.5
2023-01-15T16:09:55.910Z,86.5
2023-01-15T16:15:02.130Z,86.5
2023-01-15T16:20:08.346Z,86.5
2023-01-15T16:25:13.566Z,87.0
2023-01-15T16:30:19.763Z,87.0
2023-01-15T16:40:31.213Z,87.0
2023-01-15T16:45:36.439Z,87.5
2023-01-15T16:50:42.659Z,87.5
2023-01-15T16:55:47.890Z,87.5
2023-01-15T17:00:54.094Z,87.5
2023-01-15T17:06:00.354Z,87.5
2023-01-15T17:11:06.500Z,88.0
2023-01-15T17:16:12.835Z,88.0
2023-01-15T17:21:18.926Z,88.5
2023-01-15T17:26:25.237Z,88.5
2023-01-15T17:31:31.404Z,88.5
2023-01-15T17:36:37.544Z,88.5
2023-01-15T17:41:43.748Z,88.5
2023-01-15T17:46:49.960Z,88.5
2023-01-15T17:51:56.174Z,88.5
2023-01-15T17:57:02.383Z,88.5
2023-01-15T18:02:08.661Z,88.5
2023-01-15T18:07:14.791Z,88.5
2023-01-15T18:12:21.002Z,88.5
2023-01-15T18:17:27.206Z,88.5
2023-01-15T18:22:33.407Z,88.5
2023-01-15T18:27:39.629Z,88.5
2023-01-15T18:32:45.829Z,88.5
2023-01-15T18:37:52.036Z,88.5
2023-01-15T18:42:57.280Z,88.5
2023-01-15T18:48:03.478Z,88.5
2023-01-15T18:53:08.720Z,88.5
2023-01-15T18:58:14.918Z,89.0
2023-01-15T19:03:21.126Z,89.0
2023-01-15T19:08:27.342Z,89.0
2023-01-15T19:13:33.545Z,89.0
2023-01-15T19:18:39.758Z,89.5
2023-01-15T19:23:45.965Z,89.5
2023-01-15T19:28:52.168Z,89.5
2023-01-15T19:34:13.142Z,89.5
2023-01-15T19:39:04.596Z,89.5
2023-01-15T19:44:10.780Z,89.5
2023-01-15T19:49:17.000Z,89.5
2023-01-15T19:54:23.203Z,90.0
2023-01-15T19:59:29.416Z,90.0
2023-01-15T20:04:35.619Z,90.0
2023-01-15T20:09:41.860Z,90.0
2023-01-15T20:14:48.035Z,90.0
2023-01-15T20:19:54.255Z,90.0
2023-01-15T20:25:00.462Z,90.5
2023-01-15T20:30:06.686Z,90.5
2023-01-15T20:35:12.874Z,90.5
2023-01-15T20:40:18.106Z,90.5
2023-01-15T20:45:24.314Z,90.5
2023-01-15T20:50:29.542Z,90.5
2023-01-15T20:55:45.680Z,90.5
2023-01-15T21:00:41.976Z,90.5
2023-01-15T21:05:48.172Z,90.5
2023-01-15T21:10:54.375Z,90.5
2023-01-15T21:16:00.580Z,90.5
2023-01-15T21:21:06.793Z,91.0
2023-01-15T21:26:12.998Z,91.0
2023-01-15T21:31:19.245Z,91.0
2023-01-15T21:36:25.417Z,91.0
2023-01-15T21:41:31.632Z,91.0
2023-01-15T21:46:37.828Z,91.0
2023-01-15T21:51:44.034Z,91.0
2023-01-15T21:56:50.242Z,91.0
2023-01-15T22:01:56.647Z,91.0
2023-01-15T22:07:02.677Z,91.0
2023-01-15T22:12:08.888Z,91.0
2023-01-15T22:17:15.085Z,91.5
2023-01-15T22:22:21.285Z,91.5
2023-01-15T22:27:27.491Z,91.5
2023-01-15T22:32:33.688Z,91.5
2023-01-15T22:37:39.909Z,91.5
2023-01-15T22:42:45.136Z,91.5
2023-01-15T22:47:51.339Z,91.0
2023-01-15T22:52:56.584Z,91.0
2023-01-15T22:58:02.812Z,91.0
2023-01-15T23:03:08.995Z,91.5
2023-01-15T23:08:15.217Z,91.5
2023-01-15T23:18:27.621Z,91.5
2023-01-15T23:23:33.828Z,91.5
2023-01-15T23:28:40.037Z,91.5
2023-01-15T23:33:46.235Z,91.5
2023-01-15T23:38:52.448Z,91.5
2023-01-15T23:43:58.653Z,91.5
2023-01-15T23:49:04.876Z,91.5
2023-01-15T23:54:11.088Z,92.0
2023-01-15T23:59:17.277Z,92.0
